sensor_id;sensor_type;location;lat;lon;timestamp;P1;durP1;ratioP1;P2;durP2;ratioP2
54909;SDS011;63189;51.240;9.964;2023-10-09T00:00:56;2.65;;;1.63;;
54909;SDS011;63189;51.240;9.964;2023-10-09T00:03:47;2.83;;;1.33;;
54909;SDS011;63189;51.240;9.964;2023-10-09T00:06:18;1.95;;;1.20;;
54909;SDS011;63189;51.240;9.964;2023-10-09T00:08:55;3.60;;;1.60;;
54909;SDS011;63189;51.240;9.964;2023-10-09T00:11:23;2.22;;;1.23;;
54909;SDS011;63189;51.240;9.964;2023-10-09T00:13:55;4.13;;;1.48;;
54909;SDS011;63189;51.240;9.964;2023-10-09T00:16:24;3.53;;;1.70;;
54909;SDS011;63189;51.240;9.964;2023-10-09T00:19:02;4.45;;;1.85;;
54909;SDS011;63189;51.240;9.964;2023-10-09T00:21:39;4.35;;;1.85;;
54909;SDS011;63189;51.240;9.964;2023-10-09T00:24:12;3.40;;;1.80;;
54909;SDS011;63189;51.240;9.964;2023-10-09T00:26:53;5.53;;;1.88;;
54909;SDS011;63189;51.240;9.964;2023-10-09T00:29:36;2.33;;;1.30;;
54909;SDS011;63189;51.240;9.964;2023-10-09T00:32:07;4.35;;;1.90;;
54909;SDS011;63189;51.240;9.964;2023-10-09T00:34:41;3.03;;;1.70;;
54909;SDS011;63189;51.240;9.964;2023-10-09T00:37:11;5.03;;;2.13;;
54909;SDS011;63189;51.240;9.964;2023-10-09T00:39:57;3.67;;;1.80;;
54909;SDS011;63189;51.240;9.964;2023-10-09T00:42:22;4.53;;;2.22;;
54909;SDS011;63189;51.240;9.964;2023-10-09T00:44:58;3.53;;;1.65;;
54909;SDS011;63189;51.240;9.964;2023-10-09T00:47:30;5.70;;;1.70;;
54909;SDS011;63189;51.240;9.964;2023-10-09T00:50:01;3.85;;;1.60;;
54909;SDS011;63189;51.240;9.964;2023-10-09T00:52:52;3.10;;;1.73;;
54909;SDS011;63189;51.240;9.964;2023-10-09T00:55:27;3.60;;;2.00;;
54909;SDS011;63189;51.240;9.964;2023-10-09T00:58:03;5.03;;;2.35;;
54909;SDS011;63189;51.240;9.964;2023-10-09T01:00:35;3.28;;;1.80;;
54909;SDS011;63189;51.240;9.964;2023-10-09T01:03:10;3.15;;;1.80;;
54909;SDS011;63189;51.240;9.964;2023-10-09T01:05:39;3.25;;;2.00;;
54909;SDS011;63189;51.240;9.964;2023-10-09T01:08:20;4.05;;;1.77;;
54909;SDS011;63189;51.240;9.964;2023-10-09T01:11:15;2.85;;;1.65;;
54909;SDS011;63189;51.240;9.964;2023-10-09T01:13:50;7.15;;;2.20;;
54909;SDS011;63189;51.240;9.964;2023-10-09T01:16:15;6.88;;;2.55;;
54909;SDS011;63189;51.240;9.964;2023-10-09T01:18:49;4.80;;;2.30;;
54909;SDS011;63189;51.240;9.964;2023-10-09T01:21:16;3.33;;;2.00;;
54909;SDS011;63189;51.240;9.964;2023-10-09T01:23:43;3.08;;;1.85;;
54909;SDS011;63189;51.240;9.964;2023-10-09T01:26:31;4.50;;;2.70;;
54909;SDS011;63189;51.240;9.964;2023-10-09T01:29:04;4.85;;;2.85;;
54909;SDS011;63189;51.240;9.964;2023-10-09T01:31:39;4.82;;;2.75;;
54909;SDS011;63189;51.240;9.964;2023-10-09T01:34:20;3.72;;;2.08;;
54909;SDS011;63189;51.240;9.964;2023-10-09T01:37:06;4.03;;;2.47;;
54909;SDS011;63189;51.240;9.964;2023-10-09T01:39:40;7.03;;;2.67;;
54909;SDS011;63189;51.240;9.964;2023-10-09T01:42:07;4.32;;;2.38;;
54909;SDS011;63189;51.240;9.964;2023-10-09T01:44:34;4.43;;;2.47;;
54909;SDS011;63189;51.240;9.964;2023-10-09T01:47:03;4.35;;;2.28;;
54909;SDS011;63189;51.240;9.964;2023-10-09T01:49:35;4.93;;;2.30;;
54909;SDS011;63189;51.240;9.964;2023-10-09T01:52:06;5.90;;;2.85;;
54909;SDS011;63189;51.240;9.964;2023-10-09T01:54:42;7.72;;;3.58;;
54909;SDS011;63189;51.240;9.964;2023-10-09T01:57:15;6.13;;;3.20;;
54909;SDS011;63189;51.240;9.964;2023-10-09T01:59:47;6.40;;;3.00;;
54909;SDS011;63189;51.240;9.964;2023-10-09T02:02:15;6.35;;;3.10;;
54909;SDS011;63189;51.240;9.964;2023-10-09T02:04:55;5.70;;;2.90;;
54909;SDS011;63189;51.240;9.964;2023-10-09T02:07:44;7.10;;;3.55;;
54909;SDS011;63189;51.240;9.964;2023-10-09T02:10:16;10.70;;;4.45;;
54909;SDS011;63189;51.240;9.964;2023-10-09T02:13:02;7.05;;;3.42;;
54909;SDS011;63189;51.240;9.964;2023-10-09T02:15:32;5.60;;;3.00;;
54909;SDS011;63189;51.240;9.964;2023-10-09T02:18:11;4.80;;;3.38;;
54909;SDS011;63189;51.240;9.964;2023-10-09T02:23:25;8.68;;;4.30;;
54909;SDS011;63189;51.240;9.964;2023-10-09T02:26:16;6.57;;;2.92;;
54909;SDS011;63189;51.240;9.964;2023-10-09T02:28:57;10.32;;;3.90;;
54909;SDS011;63189;51.240;9.964;2023-10-09T02:31:34;10.05;;;3.95;;
54909;SDS011;63189;51.240;9.964;2023-10-09T02:34:05;6.15;;;3.65;;
54909;SDS011;63189;51.240;9.964;2023-10-09T02:36:33;5.75;;;3.65;;
54909;SDS011;63189;51.240;9.964;2023-10-09T02:39:13;6.88;;;3.28;;
54909;SDS011;63189;51.240;9.964;2023-10-09T02:41:48;6.95;;;3.50;;
54909;SDS011;63189;51.240;9.964;2023-10-09T02:44:20;6.30;;;3.90;;
54909;SDS011;63189;51.240;9.964;2023-10-09T02:46:49;5.72;;;3.13;;
54909;SDS011;63189;51.240;9.964;2023-10-09T02:49:15;5.22;;;3.30;;
54909;SDS011;63189;51.240;9.964;2023-10-09T02:51:41;5.40;;;3.22;;
54909;SDS011;63189;51.240;9.964;2023-10-09T02:54:07;6.30;;;3.05;;
54909;SDS011;63189;51.240;9.964;2023-10-09T02:56:43;5.68;;;3.28;;
54909;SDS011;63189;51.240;9.964;2023-10-09T02:59:12;8.80;;;4.22;;
54909;SDS011;63189;51.240;9.964;2023-10-09T03:01:38;12.88;;;4.88;;
54909;SDS011;63189;51.240;9.964;2023-10-09T03:04:04;7.53;;;3.95;;
54909;SDS011;63189;51.240;9.964;2023-10-09T03:06:31;8.15;;;3.90;;
54909;SDS011;63189;51.240;9.964;2023-10-09T03:09:00;9.32;;;4.40;;
54909;SDS011;63189;51.240;9.964;2023-10-09T03:11:41;9.13;;;3.63;;
54909;SDS011;63189;51.240;9.964;2023-10-09T03:14:07;6.85;;;3.20;;
54909;SDS011;63189;51.240;9.964;2023-10-09T03:16:32;7.05;;;3.45;;
54909;SDS011;63189;51.240;9.964;2023-10-09T03:18:58;6.97;;;3.00;;
54909;SDS011;63189;51.240;9.964;2023-10-09T03:21:24;12.40;;;4.78;;
54909;SDS011;63189;51.240;9.964;2023-10-09T03:23:50;15.63;;;6.40;;
54909;SDS011;63189;51.240;9.964;2023-10-09T03:26:18;9.05;;;4.93;;
54909;SDS011;63189;51.240;9.964;2023-10-09T03:28:47;11.35;;;5.15;;
54909;SDS011;63189;51.240;9.964;2023-10-09T03:31:13;13.63;;;6.53;;
54909;SDS011;63189;51.240;9.964;2023-10-09T03:33:39;10.10;;;5.75;;
54909;SDS011;63189;51.240;9.964;2023-10-09T03:36:06;11.57;;;6.07;;
54909;SDS011;63189;51.240;9.964;2023-10-09T03:38:34;10.77;;;6.05;;
54909;SDS011;63189;51.240;9.964;2023-10-09T03:41:01;13.55;;;6.50;;
54909;SDS011;63189;51.240;9.964;2023-10-09T03:43:37;13.35;;;6.03;;
54909;SDS011;63189;51.240;9.964;2023-10-09T03:46:11;13.32;;;7.50;;
54909;SDS011;63189;51.240;9.964;2023-10-09T03:48:58;9.95;;;6.55;;
54909;SDS011;63189;51.240;9.964;2023-10-09T03:51:35;12.80;;;6.10;;
54909;SDS011;63189;51.240;9.964;2023-10-09T03:54:02;10.63;;;5.70;;
54909;SDS011;63189;51.240;9.964;2023-10-09T03:56:32;15.45;;;6.97;;
54909;SDS011;63189;51.240;9.964;2023-10-09T03:58:57;11.55;;;5.78;;
54909;SDS011;63189;51.240;9.964;2023-10-09T04:01:23;13.43;;;6.63;;
54909;SDS011;63189;51.240;9.964;2023-10-09T04:03:57;11.85;;;6.10;;
54909;SDS011;63189;51.240;9.964;2023-10-09T04:06:26;13.43;;;6.72;;
54909;SDS011;63189;51.240;9.964;2023-10-09T04:09:00;12.57;;;6.13;;
54909;SDS011;63189;51.240;9.964;2023-10-09T04:11:50;8.68;;;5.32;;
54909;SDS011;63189;51.240;9.964;2023-10-09T04:14:35;8.65;;;4.90;;
54909;SDS011;63189;51.240;9.964;2023-10-09T04:17:01;9.68;;;5.18;;
54909;SDS011;63189;51.240;9.964;2023-10-09T04:19:31;10.73;;;4.95;;
54909;SDS011;63189;51.240;9.964;2023-10-09T04:22:13;8.90;;;4.03;;
54909;SDS011;63189;51.240;9.964;2023-10-09T04:24:51;8.45;;;4.72;;
54909;SDS011;63189;51.240;9.964;2023-10-09T04:27:16;10.68;;;5.38;;
54909;SDS011;63189;51.240;9.964;2023-10-09T04:29:42;11.35;;;5.60;;
54909;SDS011;63189;51.240;9.964;2023-10-09T04:32:14;10.20;;;5.00;;
54909;SDS011;63189;51.240;9.964;2023-10-09T04:34:43;7.55;;;4.70;;
54909;SDS011;63189;51.240;9.964;2023-10-09T04:37:16;8.30;;;5.25;;
54909;SDS011;63189;51.240;9.964;2023-10-09T04:40:00;12.40;;;5.95;;
54909;SDS011;63189;51.240;9.964;2023-10-09T04:42:35;11.27;;;6.13;;
54909;SDS011;63189;51.240;9.964;2023-10-09T04:45:06;12.40;;;6.25;;
54909;SDS011;63189;51.240;9.964;2023-10-09T04:47:33;10.25;;;5.70;;
54909;SDS011;63189;51.240;9.964;2023-10-09T04:50:03;10.27;;;5.45;;
54909;SDS011;63189;51.240;9.964;2023-10-09T04:52:58;10.30;;;5.55;;
54909;SDS011;63189;51.240;9.964;2023-10-09T04:55:44;12.93;;;7.03;;
54909;SDS011;63189;51.240;9.964;2023-10-09T04:58:21;11.65;;;6.70;;
54909;SDS011;63189;51.240;9.964;2023-10-09T05:00:56;12.98;;;6.75;;
54909;SDS011;63189;51.240;9.964;2023-10-09T05:03:22;10.27;;;6.13;;
54909;SDS011;63189;51.240;9.964;2023-10-09T05:05:53;14.38;;;6.72;;
54909;SDS011;63189;51.240;9.964;2023-10-09T05:08:27;13.38;;;7.00;;
54909;SDS011;63189;51.240;9.964;2023-10-09T05:10:56;11.00;;;6.05;;
54909;SDS011;63189;51.240;9.964;2023-10-09T05:13:34;12.10;;;6.03;;
54909;SDS011;63189;51.240;9.964;2023-10-09T05:16:03;13.32;;;6.10;;
54909;SDS011;63189;51.240;9.964;2023-10-09T05:18:29;15.20;;;6.20;;
54909;SDS011;63189;51.240;9.964;2023-10-09T05:21:01;12.40;;;6.20;;
54909;SDS011;63189;51.240;9.964;2023-10-09T05:23:46;9.25;;;5.18;;
54909;SDS011;63189;51.240;9.964;2023-10-09T05:26:34;12.05;;;5.72;;
54909;SDS011;63189;51.240;9.964;2023-10-09T05:31:51;12.35;;;6.10;;
54909;SDS011;63189;51.240;9.964;2023-10-09T05:34:23;9.98;;;5.10;;
54909;SDS011;63189;51.240;9.964;2023-10-09T05:36:58;11.25;;;6.50;;
54909;SDS011;63189;51.240;9.964;2023-10-09T05:39:36;14.00;;;5.85;;
54909;SDS011;63189;51.240;9.964;2023-10-09T05:42:07;12.63;;;6.43;;
54909;SDS011;63189;51.240;9.964;2023-10-09T05:44:43;12.02;;;6.20;;
54909;SDS011;63189;51.240;9.964;2023-10-09T05:47:27;16.60;;;6.57;;
54909;SDS011;63189;51.240;9.964;2023-10-09T05:49:56;10.82;;;5.40;;
54909;SDS011;63189;51.240;9.964;2023-10-09T05:52:33;11.50;;;5.78;;
54909;SDS011;63189;51.240;9.964;2023-10-09T05:55:05;6.78;;;4.28;;
54909;SDS011;63189;51.240;9.964;2023-10-09T05:57:44;11.13;;;5.85;;
54909;SDS011;63189;51.240;9.964;2023-10-09T06:03:22;7.00;;;3.70;;
54909;SDS011;63189;51.240;9.964;2023-10-09T06:08:31;11.25;;;4.60;;
54909;SDS011;63189;51.240;9.964;2023-10-09T06:11:07;8.02;;;4.28;;
54909;SDS011;63189;51.240;9.964;2023-10-09T06:13:51;8.63;;;4.45;;
54909;SDS011;63189;51.240;9.964;2023-10-09T06:16:28;10.65;;;5.00;;
54909;SDS011;63189;51.240;9.964;2023-10-09T06:19:06;10.73;;;5.28;;
54909;SDS011;63189;51.240;9.964;2023-10-09T06:21:51;8.05;;;4.18;;
54909;SDS011;63189;51.240;9.964;2023-10-09T06:24:20;6.60;;;3.97;;
54909;SDS011;63189;51.240;9.964;2023-10-09T06:26:48;9.68;;;5.15;;
54909;SDS011;63189;51.240;9.964;2023-10-09T06:29:24;7.03;;;4.18;;
54909;SDS011;63189;51.240;9.964;2023-10-09T06:32:04;8.32;;;4.20;;
54909;SDS011;63189;51.240;9.964;2023-10-09T06:34:52;8.73;;;4.90;;
54909;SDS011;63189;51.240;9.964;2023-10-09T06:37:39;9.80;;;4.47;;
54909;SDS011;63189;51.240;9.964;2023-10-09T06:40:25;9.02;;;4.20;;
54909;SDS011;63189;51.240;9.964;2023-10-09T06:43:09;9.13;;;4.55;;
54909;SDS011;63189;51.240;9.964;2023-10-09T06:45:40;9.02;;;4.95;;
54909;SDS011;63189;51.240;9.964;2023-10-09T06:48:19;7.38;;;4.35;;
54909;SDS011;63189;51.240;9.964;2023-10-09T06:53:48;11.00;;;4.95;;
54909;SDS011;63189;51.240;9.964;2023-10-09T06:56:20;7.70;;;4.63;;
54909;SDS011;63189;51.240;9.964;2023-10-09T06:58:54;8.07;;;4.78;;
54909;SDS011;63189;51.240;9.964;2023-10-09T07:01:27;9.32;;;4.82;;
54909;SDS011;63189;51.240;9.964;2023-10-09T07:03:52;11.00;;;5.78;;
54909;SDS011;63189;51.240;9.964;2023-10-09T07:06:18;11.98;;;6.20;;
54909;SDS011;63189;51.240;9.964;2023-10-09T07:09:10;10.82;;;5.35;;
54909;SDS011;63189;51.240;9.964;2023-10-09T07:11:36;11.07;;;6.35;;
54909;SDS011;63189;51.240;9.964;2023-10-09T07:14:09;11.35;;;5.55;;
54909;SDS011;63189;51.240;9.964;2023-10-09T07:16:56;7.88;;;4.45;;
54909;SDS011;63189;51.240;9.964;2023-10-09T07:19:23;10.55;;;5.05;;
54909;SDS011;63189;51.240;9.964;2023-10-09T07:22:10;11.25;;;5.22;;
54909;SDS011;63189;51.240;9.964;2023-10-09T07:24:52;11.30;;;5.60;;
54909;SDS011;63189;51.240;9.964;2023-10-09T07:27:22;9.60;;;5.05;;
54909;SDS011;63189;51.240;9.964;2023-10-09T07:30:07;9.23;;;5.20;;
54909;SDS011;63189;51.240;9.964;2023-10-09T07:35:36;9.10;;;5.18;;
54909;SDS011;63189;51.240;9.964;2023-10-09T07:38:09;9.70;;;5.47;;
54909;SDS011;63189;51.240;9.964;2023-10-09T07:40:35;11.38;;;5.65;;
54909;SDS011;63189;51.240;9.964;2023-10-09T07:43:20;10.95;;;5.82;;
54909;SDS011;63189;51.240;9.964;2023-10-09T07:45:51;10.95;;;5.43;;
54909;SDS011;63189;51.240;9.964;2023-10-09T07:48:16;10.70;;;4.97;;
54909;SDS011;63189;51.240;9.964;2023-10-09T07:50:50;11.05;;;5.28;;
54909;SDS011;63189;51.240;9.964;2023-10-09T07:53:22;10.93;;;5.65;;
54909;SDS011;63189;51.240;9.964;2023-10-09T07:55:52;9.13;;;4.93;;
54909;SDS011;63189;51.240;9.964;2023-10-09T07:58:31;9.57;;;4.60;;
54909;SDS011;63189;51.240;9.964;2023-10-09T08:00:58;8.68;;;4.70;;
54909;SDS011;63189;51.240;9.964;2023-10-09T08:03:36;11.07;;;5.00;;
54909;SDS011;63189;51.240;9.964;2023-10-09T08:06:03;7.65;;;4.43;;
54909;SDS011;63189;51.240;9.964;2023-10-09T08:08:47;10.20;;;5.03;;
54909;SDS011;63189;51.240;9.964;2023-10-09T08:11:29;11.63;;;5.32;;
54909;SDS011;63189;51.240;9.964;2023-10-09T08:14:20;7.80;;;4.43;;
54909;SDS011;63189;51.240;9.964;2023-10-09T08:16:46;8.88;;;5.15;;
54909;SDS011;63189;51.240;9.964;2023-10-09T08:19:13;6.85;;;4.20;;
54909;SDS011;63189;51.240;9.964;2023-10-09T08:24:40;8.07;;;4.07;;
54909;SDS011;63189;51.240;9.964;2023-10-09T08:27:07;10.95;;;4.75;;
54909;SDS011;63189;51.240;9.964;2023-10-09T08:29:52;10.48;;;4.93;;
54909;SDS011;63189;51.240;9.964;2023-10-09T08:32:38;10.63;;;6.05;;
54909;SDS011;63189;51.240;9.964;2023-10-09T08:35:04;12.48;;;6.22;;
54909;SDS011;63189;51.240;9.964;2023-10-09T08:37:44;8.18;;;4.90;;
54909;SDS011;63189;51.240;9.964;2023-10-09T08:40:13;8.70;;;4.95;;
54909;SDS011;63189;51.240;9.964;2023-10-09T08:42:43;11.90;;;5.55;;
54909;SDS011;63189;51.240;9.964;2023-10-09T08:45:14;9.05;;;5.18;;
54909;SDS011;63189;51.240;9.964;2023-10-09T08:47:51;12.18;;;6.18;;
54909;SDS011;63189;51.240;9.964;2023-10-09T08:50:19;13.57;;;5.78;;
54909;SDS011;63189;51.240;9.964;2023-10-09T08:52:47;11.50;;;5.50;;
54909;SDS011;63189;51.240;9.964;2023-10-09T08:55:14;9.20;;;5.53;;
54909;SDS011;63189;51.240;9.964;2023-10-09T08:57:42;11.80;;;5.13;;
54909;SDS011;63189;51.240;9.964;2023-10-09T09:00:09;10.32;;;5.40;;
54909;SDS011;63189;51.240;9.964;2023-10-09T09:02:46;9.98;;;4.65;;
54909;SDS011;63189;51.240;9.964;2023-10-09T09:05:21;9.85;;;4.70;;
54909;SDS011;63189;51.240;9.964;2023-10-09T09:07:46;9.00;;;5.32;;
54909;SDS011;63189;51.240;9.964;2023-10-09T09:10:13;10.45;;;5.38;;
54909;SDS011;63189;51.240;9.964;2023-10-09T09:12:48;12.20;;;5.85;;
54909;SDS011;63189;51.240;9.964;2023-10-09T09:15:25;8.10;;;4.53;;
54909;SDS011;63189;51.240;9.964;2023-10-09T09:17:52;7.80;;;4.57;;
54909;SDS011;63189;51.240;9.964;2023-10-09T09:20:31;9.52;;;4.63;;
54909;SDS011;63189;51.240;9.964;2023-10-09T09:23:01;9.23;;;4.80;;
54909;SDS011;63189;51.240;9.964;2023-10-09T09:28:13;17.65;;;10.23;;
54909;SDS011;63189;51.240;9.964;2023-10-09T09:33:26;20.58;;;11.23;;
54909;SDS011;63189;51.240;9.964;2023-10-09T09:36:03;8.15;;;4.35;;
54909;SDS011;63189;51.240;9.964;2023-10-09T09:38:31;10.27;;;5.07;;
54909;SDS011;63189;51.240;9.964;2023-10-09T09:41:12;8.18;;;4.25;;
54909;SDS011;63189;51.240;9.964;2023-10-09T09:43:48;8.35;;;4.35;;
54909;SDS011;63189;51.240;9.964;2023-10-09T09:46:26;8.13;;;4.10;;
54909;SDS011;63189;51.240;9.964;2023-10-09T09:49:02;8.05;;;4.07;;
54909;SDS011;63189;51.240;9.964;2023-10-09T09:51:33;10.13;;;4.20;;
54909;SDS011;63189;51.240;9.964;2023-10-09T09:54:00;9.30;;;4.28;;
54909;SDS011;63189;51.240;9.964;2023-10-09T09:56:28;7.65;;;4.28;;
54909;SDS011;63189;51.240;9.964;2023-10-09T09:58:53;8.95;;;4.68;;
54909;SDS011;63189;51.240;9.964;2023-10-09T10:01:26;8.35;;;4.10;;
54909;SDS011;63189;51.240;9.964;2023-10-09T10:04:01;7.57;;;3.97;;
54909;SDS011;63189;51.240;9.964;2023-10-09T10:06:37;6.72;;;4.20;;
54909;SDS011;63189;51.240;9.964;2023-10-09T10:09:04;6.82;;;4.28;;
54909;SDS011;63189;51.240;9.964;2023-10-09T10:11:42;6.28;;;4.18;;
54909;SDS011;63189;51.240;9.964;2023-10-09T10:14:14;7.10;;;4.57;;
54909;SDS011;63189;51.240;9.964;2023-10-09T10:16:59;9.25;;;3.70;;
54909;SDS011;63189;51.240;9.964;2023-10-09T10:19:58;7.15;;;4.50;;
54909;SDS011;63189;51.240;9.964;2023-10-09T10:22:25;8.93;;;4.28;;
54909;SDS011;63189;51.240;9.964;2023-10-09T10:24:55;7.50;;;4.60;;
54909;SDS011;63189;51.240;9.964;2023-10-09T10:27:27;8.65;;;4.55;;
54909;SDS011;63189;51.240;9.964;2023-10-09T10:32:56;9.13;;;4.50;;
54909;SDS011;63189;51.240;9.964;2023-10-09T10:35:34;11.73;;;5.53;;
54909;SDS011;63189;51.240;9.964;2023-10-09T10:38:28;12.32;;;4.80;;
54909;SDS011;63189;51.240;9.964;2023-10-09T10:41:12;8.05;;;4.55;;
54909;SDS011;63189;51.240;9.964;2023-10-09T10:43:41;7.35;;;3.90;;
54909;SDS011;63189;51.240;9.964;2023-10-09T10:46:13;8.70;;;5.13;;
54909;SDS011;63189;51.240;9.964;2023-10-09T10:48:55;9.38;;;4.82;;
54909;SDS011;63189;51.240;9.964;2023-10-09T10:51:25;8.60;;;4.80;;
54909;SDS011;63189;51.240;9.964;2023-10-09T10:54:08;11.43;;;5.57;;
54909;SDS011;63189;51.240;9.964;2023-10-09T10:57:02;13.27;;;5.10;;
54909;SDS011;63189;51.240;9.964;2023-10-09T10:59:32;9.68;;;5.00;;
54909;SDS011;63189;51.240;9.964;2023-10-09T11:02:11;9.10;;;5.47;;
54909;SDS011;63189;51.240;9.964;2023-10-09T11:04:36;12.30;;;5.50;;
54909;SDS011;63189;51.240;9.964;2023-10-09T11:07:09;11.70;;;6.13;;
54909;SDS011;63189;51.240;9.964;2023-10-09T11:09:47;9.60;;;5.90;;
54909;SDS011;63189;51.240;9.964;2023-10-09T11:12:43;9.70;;;5.60;;
54909;SDS011;63189;51.240;9.964;2023-10-09T11:15:31;8.68;;;5.38;;
54909;SDS011;63189;51.240;9.964;2023-10-09T11:18:12;13.18;;;5.22;;
54909;SDS011;63189;51.240;9.964;2023-10-09T11:20:52;8.85;;;5.13;;
54909;SDS011;63189;51.240;9.964;2023-10-09T11:23:29;9.13;;;5.10;;
54909;SDS011;63189;51.240;9.964;2023-10-09T11:25:58;8.77;;;4.53;;
54909;SDS011;63189;51.240;9.964;2023-10-09T11:28:44;9.20;;;4.90;;
54909;SDS011;63189;51.240;9.964;2023-10-09T11:31:30;9.10;;;4.70;;
54909;SDS011;63189;51.240;9.964;2023-10-09T11:34:00;10.88;;;5.20;;
54909;SDS011;63189;51.240;9.964;2023-10-09T11:36:26;8.98;;;5.10;;
54909;SDS011;63189;51.240;9.964;2023-10-09T11:38:59;10.13;;;4.97;;
54909;SDS011;63189;51.240;9.964;2023-10-09T11:42:02;8.85;;;4.40;;
54909;SDS011;63189;51.240;9.964;2023-10-09T11:44:48;9.68;;;5.55;;
54909;SDS011;63189;51.240;9.964;2023-10-09T11:47:20;8.95;;;5.13;;
54909;SDS011;63189;51.240;9.964;2023-10-09T11:52:28;12.70;;;4.78;;
54909;SDS011;63189;51.240;9.964;2023-10-09T11:55:00;7.53;;;4.30;;
54909;SDS011;63189;51.240;9.964;2023-10-09T11:57:33;10.68;;;4.57;;
54909;SDS011;63189;51.240;9.964;2023-10-09T12:00:00;7.40;;;4.43;;
54909;SDS011;63189;51.240;9.964;2023-10-09T12:02:35;10.55;;;4.95;;
54909;SDS011;63189;51.240;9.964;2023-10-09T12:05:08;11.32;;;4.85;;
54909;SDS011;63189;51.240;9.964;2023-10-09T12:07:34;10.20;;;4.53;;
54909;SDS011;63189;51.240;9.964;2023-10-09T12:10:03;11.90;;;4.97;;
54909;SDS011;63189;51.240;9.964;2023-10-09T12:12:29;7.88;;;4.28;;
54909;SDS011;63189;51.240;9.964;2023-10-09T12:14:54;6.45;;;4.40;;
54909;SDS011;63189;51.240;9.964;2023-10-09T12:17:19;9.60;;;4.95;;
54909;SDS011;63189;51.240;9.964;2023-10-09T12:19:49;8.02;;;4.60;;
54909;SDS011;63189;51.240;9.964;2023-10-09T12:22:16;6.57;;;4.20;;
54909;SDS011;63189;51.240;9.964;2023-10-09T12:24:41;7.10;;;4.63;;
54909;SDS011;63189;51.240;9.964;2023-10-09T12:27:10;6.72;;;4.00;;
54909;SDS011;63189;51.240;9.964;2023-10-09T12:29:36;7.93;;;4.30;;
54909;SDS011;63189;51.240;9.964;2023-10-09T12:32:02;7.10;;;4.35;;
54909;SDS011;63189;51.240;9.964;2023-10-09T12:34:29;9.13;;;4.78;;
54909;SDS011;63189;51.240;9.964;2023-10-09T12:36:59;6.90;;;4.40;;
54909;SDS011;63189;51.240;9.964;2023-10-09T12:39:27;7.57;;;4.30;;
54909;SDS011;63189;51.240;9.964;2023-10-09T12:41:58;7.30;;;4.32;;
54909;SDS011;63189;51.240;9.964;2023-10-09T12:44:31;7.43;;;4.18;;
54909;SDS011;63189;51.240;9.964;2023-10-09T12:46:59;7.68;;;4.47;;
54909;SDS011;63189;51.240;9.964;2023-10-09T12:49:28;9.45;;;4.93;;
54909;SDS011;63189;51.240;9.964;2023-10-09T12:51:54;8.60;;;4.70;;
54909;SDS011;63189;51.240;9.964;2023-10-09T12:54:27;6.22;;;4.07;;
54909;SDS011;63189;51.240;9.964;2023-10-09T12:56:53;13.02;;;4.88;;
54909;SDS011;63189;51.240;9.964;2023-10-09T12:59:19;10.93;;;4.93;;
54909;SDS011;63189;51.240;9.964;2023-10-09T13:01:45;8.88;;;4.40;;
54909;SDS011;63189;51.240;9.964;2023-10-09T13:04:15;8.32;;;4.18;;
54909;SDS011;63189;51.240;9.964;2023-10-09T13:06:41;11.10;;;5.03;;
54909;SDS011;63189;51.240;9.964;2023-10-09T13:09:11;10.90;;;4.93;;
54909;SDS011;63189;51.240;9.964;2023-10-09T13:11:50;8.75;;;5.03;;
54909;SDS011;63189;51.240;9.964;2023-10-09T13:14:16;10.00;;;4.20;;
54909;SDS011;63189;51.240;9.964;2023-10-09T13:16:47;11.25;;;4.40;;
54909;SDS011;63189;51.240;9.964;2023-10-09T13:19:15;16.15;;;10.30;;
54909;SDS011;63189;51.240;9.964;2023-10-09T13:21:42;7.40;;;4.65;;
54909;SDS011;63189;51.240;9.964;2023-10-09T13:24:08;16.85;;;9.93;;
54909;SDS011;63189;51.240;9.964;2023-10-09T13:26:48;10.50;;;6.63;;
54909;SDS011;63189;51.240;9.964;2023-10-09T13:29:17;9.38;;;4.40;;
54909;SDS011;63189;51.240;9.964;2023-10-09T13:31:47;9.70;;;4.22;;
54909;SDS011;63189;51.240;9.964;2023-10-09T13:34:14;9.27;;;5.13;;
54909;SDS011;63189;51.240;9.964;2023-10-09T13:36:40;7.45;;;4.50;;
54909;SDS011;63189;51.240;9.964;2023-10-09T13:39:14;7.70;;;4.07;;
54909;SDS011;63189;51.240;9.964;2023-10-09T13:41:55;8.27;;;4.78;;
54909;SDS011;63189;51.240;9.964;2023-10-09T13:44:32;6.63;;;4.13;;
54909;SDS011;63189;51.240;9.964;2023-10-09T13:47:05;9.60;;;4.83;;
54909;SDS011;63189;51.240;9.964;2023-10-09T13:49:33;8.88;;;4.30;;
54909;SDS011;63189;51.240;9.964;2023-10-09T13:51:59;8.75;;;4.13;;
54909;SDS011;63189;51.240;9.964;2023-10-09T13:54:29;8.27;;;4.40;;
54909;SDS011;63189;51.240;9.964;2023-10-09T13:56:58;6.47;;;4.22;;
54909;SDS011;63189;51.240;9.964;2023-10-09T13:59:24;8.93;;;4.90;;
54909;SDS011;63189;51.240;9.964;2023-10-09T14:01:53;9.07;;;4.80;;
54909;SDS011;63189;51.240;9.964;2023-10-09T14:04:22;7.70;;;4.95;;
54909;SDS011;63189;51.240;9.964;2023-10-09T14:06:48;9.73;;;4.68;;
54909;SDS011;63189;51.240;9.964;2023-10-09T14:09:22;7.53;;;4.07;;
54909;SDS011;63189;51.240;9.964;2023-10-09T14:11:57;10.20;;;4.97;;
54909;SDS011;63189;51.240;9.964;2023-10-09T14:16:58;7.90;;;4.97;;
54909;SDS011;63189;51.240;9.964;2023-10-09T14:19:23;6.47;;;4.88;;
54909;SDS011;63189;51.240;9.964;2023-10-09T14:21:49;10.32;;;5.18;;
54909;SDS011;63189;51.240;9.964;2023-10-09T14:24:14;9.23;;;4.57;;
54909;SDS011;63189;51.240;9.964;2023-10-09T14:26:40;10.82;;;7.00;;
54909;SDS011;63189;51.240;9.964;2023-10-09T14:29:07;9.75;;;5.45;;
54909;SDS011;63189;51.240;9.964;2023-10-09T14:31:33;7.93;;;4.55;;
54909;SDS011;63189;51.240;9.964;2023-10-09T14:34:04;10.73;;;4.28;;
54909;SDS011;63189;51.240;9.964;2023-10-09T14:36:30;6.75;;;3.90;;
54909;SDS011;63189;51.240;9.964;2023-10-09T14:38:59;5.63;;;4.07;;
54909;SDS011;63189;51.240;9.964;2023-10-09T14:41:29;7.82;;;4.43;;
54909;SDS011;63189;51.240;9.964;2023-10-09T14:43:58;9.10;;;4.38;;
54909;SDS011;63189;51.240;9.964;2023-10-09T14:46:24;10.15;;;5.40;;
54909;SDS011;63189;51.240;9.964;2023-10-09T14:48:54;8.38;;;5.93;;
54909;SDS011;63189;51.240;9.964;2023-10-09T14:51:20;8.27;;;5.30;;
54909;SDS011;63189;51.240;9.964;2023-10-09T14:53:52;8.15;;;4.68;;
54909;SDS011;63189;51.240;9.964;2023-10-09T14:56:26;7.90;;;5.05;;
54909;SDS011;63189;51.240;9.964;2023-10-09T14:58:56;11.10;;;5.10;;
54909;SDS011;63189;51.240;9.964;2023-10-09T15:01:26;10.05;;;6.40;;
54909;SDS011;63189;51.240;9.964;2023-10-09T15:03:56;10.05;;;6.30;;
54909;SDS011;63189;51.240;9.964;2023-10-09T15:06:28;8.07;;;4.95;;
54909;SDS011;63189;51.240;9.964;2023-10-09T15:08:55;15.05;;;6.68;;
54909;SDS011;63189;51.240;9.964;2023-10-09T15:11:25;10.20;;;6.28;;
54909;SDS011;63189;51.240;9.964;2023-10-09T15:13:53;9.00;;;5.63;;
54909;SDS011;63189;51.240;9.964;2023-10-09T15:16:23;14.48;;;6.82;;
54909;SDS011;63189;51.240;9.964;2023-10-09T15:18:51;11.07;;;6.32;;
54909;SDS011;63189;51.240;9.964;2023-10-09T15:21:21;9.35;;;6.03;;
54909;SDS011;63189;51.240;9.964;2023-10-09T15:23:48;9.48;;;5.53;;
54909;SDS011;63189;51.240;9.964;2023-10-09T15:26:19;10.57;;;6.20;;
54909;SDS011;63189;51.240;9.964;2023-10-09T15:28:44;9.60;;;6.03;;
54909;SDS011;63189;51.240;9.964;2023-10-09T15:31:10;9.85;;;5.60;;
54909;SDS011;63189;51.240;9.964;2023-10-09T15:33:41;15.75;;;7.05;;
54909;SDS011;63189;51.240;9.964;2023-10-09T15:36:14;11.13;;;6.43;;
54909;SDS011;63189;51.240;9.964;2023-10-09T15:38:43;11.02;;;6.35;;
54909;SDS011;63189;51.240;9.964;2023-10-09T15:41:08;11.45;;;6.90;;
54909;SDS011;63189;51.240;9.964;2023-10-09T15:43:37;10.55;;;6.53;;
54909;SDS011;63189;51.240;9.964;2023-10-09T15:46:05;10.45;;;6.60;;
54909;SDS011;63189;51.240;9.964;2023-10-09T15:48:36;9.98;;;6.18;;
54909;SDS011;63189;51.240;9.964;2023-10-09T15:51:02;13.38;;;7.70;;